Time;durP1;ratioP1;P1;durP2;ratioP2;P2;SDS_P1;SDS_P2;PMS_P1;PMS_P2;Temp;Humidity;BMP_temperature;BMP_pressure;BME280_temperature;BME280_humidity;BME280_pressure;Samples;Min_cycle;Max_cycle;Signal;HPM_P1;HPM_P2
2022/12/31 00:02:23;;;;;;;;;;;;;;;12.18;100.00;100254.22;5093268;28;19942;-61
2022/12/31 00:04:48;;;;;;;;;;;;;;;12.17;100.00;100253.41;5085109;28;19923;-63
2022/12/31 00:07:13;;;;;;;;;;;;;;;12.15;100.00;100246.63;5074295;28;21501;-61
2022/12/31 00:09:38;;;;;;;;;;;;;;;12.14;100.00;100253.78;5083732;28;19916;-64
2022/12/31 00:12:04;;;;;;;;;;;;;;;12.14;100.00;100250.28;5082881;28;20490;-61
2022/12/31 00:14:29;;;;;;;;;;;;;;;12.13;100.00;100248.63;5079290;28;20042;-61
2022/12/31 00:16:54;;;;;;;;;;;;;;;12.10;100.00;100253.34;5081558;28;19920;-61
2022/12/31 00:19:19;;;;;;;;;;;;;;;12.07;100.00;100260.91;5083709;28;20398;-62
2022/12/31 00:21:44;;;;;;;;;;;;;;;12.06;100.00;100244.09;5074213;28;19924;-63
2022/12/31 00:24:09;;;;;;;;;;;;;;;12.05;100.00;100244.31;5084092;28;20283;-62
2022/12/31 00:26:35;;;;;;;;;;;;;;;12.03;100.00;100236.50;5070651;28;19935;-63
2022/12/31 00:29:01;;;;;;;;;;;;;;;12.06;100.00;100244.09;5082674;28;19924;-61
2022/12/31 00:31:27;;;;;;;;;;;;;;;12.08;100.00;100250.06;5081468;28;19922;-61
2022/12/31 00:33:52;;;;;;;;;;;;;;;12.09;100.00;100245.56;5086778;28;20366;-62
2022/12/31 00:36:19;;;;;;;;;;;;;;;12.12;100.00;100244.34;5075634;28;20412;-61
2022/12/31 00:38:46;;;;;;;;;;;;;;;12.09;100.00;100246.38;5081680;28;19978;-62
2022/12/31 00:41:12;;;;;;;;;;;;;;;12.09;100.00;100238.38;5077996;28;20636;-62
2022/12/31 00:43:37;;;;;;;;;;;;;;;12.10;100.00;100237.38;5082226;28;19916;-61
2022/12/31 00:46:03;;;;;;;;;;;;;;;12.09;100.00;100233.06;5081779;28;19935;-61
2022/12/31 00:48:28;;;;;;;;;;;;;;;12.10;100.00;100240.03;5082291;28;19920;-61
2022/12/31 00:50:54;;;;;;;;;;;;;;;12.10;100.00;100237.38;5079038;28;20403;-64
2022/12/31 00:53:19;;;;;;;;;;;;;;;12.11;100.00;100248.84;5082910;28;19912;-61
2022/12/31 00:55:44;;;;;;;;;;;;;;;12.10;100.00;100237.38;5073486;28;20373;-61
2022/12/31 00:58:10;;;;;;;;;;;;;;;12.12;100.00;100233.69;5081100;28;19912;-62
2022/12/31 01:00:36;;;;;;;;;;;;;;;12.12;100.00;100249.66;5079612;28;19920;-61
2022/12/31 01:03:01;;;;;;;;;;;;;;;12.13;100.00;100235.34;5084521;28;19912;-60
2022/12/31 01:05:26;;;;;;;;;;;;;;;12.14;100.00;100242.31;5082147;28;19924;-65
2022/12/31 01:07:51;;;;;;;;;;;;;;;12.12;100.00;100218.53;5080907;28;19974;-61
2022/12/31 01:11:17;;;;;;;;;;;;;;;12.12;100.00;100220.38;5082471;28;20360;-61
2022/12/31 01:13:02;;;;;;;;;;;;;;;12.13;100.00;100222.03;5087291;28;20340;-61
2022/12/31 01:15:27;;;;;;;;;;;;;;;12.12;100.00;100217.72;5086534;28;20321;-64
2022/12/31 01:17:52;;;;;;;;;;;;;;;12.12;100.00;100213.22;5078768;28;19947;-62
2022/12/31 01:20:17;;;;;;;;;;;;;;;12.12;100.00;100207.91;5091506;28;20006;-61
2022/12/31 01:22:42;;;;;;;;;;;;;;;12.12;100.00;100218.53;5079128;28;20437;-62
2022/12/31 01:25:08;;;;;;;;;;;;;;;12.14;100.00;100234.31;5085208;28;19959;-61
2022/12/31 01:27:33;;;;;;;;;;;;;;;12.14;100.00;100237.78;5084910;28;20357;-62
2022/12/31 01:29:58;;;;;;;;;;;;;;;12.14;100.00;100227.16;5085623;28;19961;-61
2022/12/31 01:32:23;;;;;;;;;;;;;;;12.14;100.00;100231.66;5077466;28;19924;-62
2022/12/31 01:34:48;;;;;;;;;;;;;;;12.14;100.00;100226.34;5087804;28;20011;-61
2022/12/31 01:37:13;;;;;;;;;;;;;;;12.13;100.00;100235.34;5093206;28;19916;-63
2022/12/31 01:39:39;;;;;;;;;;;;;;;12.12;100.00;100247.00;5084836;28;19975;-62
2022/12/31 01:42:04;;;;;;;;;;;;;;;12.10;100.00;100245.34;5082578;28;19916;-62
2022/12/31 01:44:29;;;;;;;;;;;;;;;12.12;100.00;100262.97;5088021;28;19916;-63
2022/12/31 01:47:01;;;;;;;;;;;;;;;12.09;100.00;100246.38;5083743;28;20384;-62
2022/12/31 01:49:34;;;;;;;;;;;;;;;12.06;100.00;100259.25;5081064;28;19920;-61
2022/12/31 01:52:03;;;;;;;;;;;;;;;11.94;100.00;100269.63;5093703;28;20467;-62
2022/12/31 01:54:29;;;;;;;;;;;;;;;11.78;100.00;100299.97;5088646;28;19939;-61
2022/12/31 01:56:55;;;;;;;;;;;;;;;11.74;100.00;100321.81;5089989;28;20383;-61
2022/12/31 01:59:23;;;;;;;;;;;;;;;11.72;100.00;100356.56;5083242;28;19923;-61
2022/12/31 02:01:53;;;;;;;;;;;;;;;11.64;100.00;100351.38;5087356;28;19986;-61
2022/12/31 02:04:20;;;;;;;;;;;;;;;11.54;100.00;100310.13;5092799;28;19916;-61
2022/12/31 02:06:57;;;;;;;;;;;;;;;11.48;100.00;100277.97;5085555;28;20013;-62
2022/12/31 02:09:22;;;;;;;;;;;;;;;11.41;100.00;100239.88;5082115;28;20528;-62
2022/12/31 02:11:47;;;;;;;;;;;;;;;11.38;100.00;100229.63;5091115;28;19913;-62
2022/12/31 02:14:14;;;;;;;;;;;;;;;11.39;100.00;100257.88;5086160;28;19999;-62
2022/12/31 02:16:45;;;;;;;;;;;;;;;11.40;100.00;100285.28;5081092;28;20350;-62
2022/12/31 02:19:30;;;;;;;;;;;;;;;11.34;100.00;100283.38;5079731;28;19917;-62
2022/12/31 02:22:02;;;;;;;;;;;;;;;11.33;100.00;100287.03;5097754;28;19950;-62
2022/12/31 02:24:27;;;;;;;;;;;;;;;11.32;100.00;100318.13;5079109;28;19923;-61
2022/12/31 02:27:02;;;;;;;;;;;;;;;11.33;100.00;100322.44;5080418;28;19923;-62
2022/12/31 02:29:45;;;;;;;;;;;;;;;11.33;100.00;100293.19;5083490;28;19981;-62
2022/12/31 02:32:16;;;;;;;;;;;;;;;11.34;100.00;100286.84;5077389;28;20003;-62
2022/12/31 02:34:58;;;;;;;;;;;;;;;11.34;100.00;100299.31;5076112;28;20000;-61
2022/12/31 02:37:25;;;;;;;;;;;;;;;11.34;100.00;100281.53;5088611;28;20019;-61
2022/12/31 02:39:51;;;;;;;;;;;;;;;11.32;100.00;100294.19;5082942;28;20717;-64
2022/12/31 02:42:16;;;;;;;;;;;;;;;11.31;100.00;100299.69;5083986;28;20003;-61
2022/12/31 02:44:41;;;;;;;;;;;;;;;11.29;100.00;100299.91;5082642;28;19974;-61
2022/12/31 02:47:16;;;;;;;;;;;;;;;11.27;100.00;100299.22;5086964;28;20018;-62
2022/12/31 02:49:56;;;;;;;;;;;;;;;11.25;100.00;100305.75;5081363;28;20010;-63
2022/12/31 02:52:27;;;;;;;;;;;;;;;11.24;100.00;100298.78;5084188;28;19938;-62
2022/12/31 02:55:12;;;;;;;;;;;;;;;11.20;100.00;100301.00;5081429;28;20450;-62
2022/12/31 02:57:41;;;;;;;;;;;;;;;11.20;100.00;100286.88;5082740;28;19922;-62
2022/12/31 03:02:53;;;;;;;;;;;;;;;11.17;100.00;100288.91;5076854;28;19927;-61
2022/12/31 03:05:21;;;;;;;;;;;;;;;11.14;100.00;100291.94;5079404;28;19997;-61
2022/12/31 03:07:46;;;;;;;;;;;;;;;11.14;100.00;100288.47;5076608;28;19920;-62
2022/12/31 03:10:12;;;;;;;;;;;;;;;11.12;100.00;100290.50;5088272;28;19920;-61
2022/12/31 03:12:45;;;;;;;;;;;;;;;11.10;100.00;100292.50;5089505;28;19927;-62
2022/12/31 03:15:20;;;;;;;;;;;;;;;11.09;100.00;100289.03;5081489;28;19919;-62
2022/12/31 03:17:59;;;;;;;;;;;;;;;11.09;100.00;100285.56;5084912;28;20013;-61
2022/12/31 03:23:13;;;;;;;;;;;;;;;11.08;100.00;100268.78;5084895;28;19964;-61
2022/12/31 03:25:38;;;;;;;;;;;;;;;11.09;100.00;100280.25;5085785;28;19920;-62
2022/12/31 03:28:05;;;;;;;;;;;;;;;11.09;100.00;100266.97;5081306;28;20032;-63
2022/12/31 03:30:31;;;;;;;;;;;;;;;11.08;100.00;100274.09;5088991;28;19969;-62
2022/12/31 03:32:56;;;;;;;;;;;;;;;11.07;100.00;100269.81;5088654;28;19916;-64
2022/12/31 03:35:22;;;;;;;;;;;;;;;11.06;100.00;100268.16;5086414;28;19997;-61
2022/12/31 03:37:48;;;;;;;;;;;;;;;11.06;100.00;100272.66;5078774;28;19959;-62
2022/12/31 03:40:14;;;;;;;;;;;;;;;11.05;100.00;100263.03;5079243;28;20328;-64
2022/12/31 03:42:40;;;;;;;;;;;;;;;11.05;100.00;100265.69;5080858;28;19916;-62
2022/12/31 03:45:05;;;;;;;;;;;;;;;11.04;100.00;100258.72;5086299;28;19939;-62
2022/12/31 03:47:31;;;;;;;;;;;;;;;11.03;100.00;100259.75;5079931;28;20330;-63
2022/12/31 03:49:56;;;;;;;;;;;;;;;11.03;100.00;100260.56;5078728;28;20013;-61
2022/12/31 03:52:21;;;;;;;;;;;;;;;11.02;100.00;100250.13;5083127;28;19948;-62
2022/12/31 03:54:46;;;;;;;;;;;;;;;11.02;100.00;100260.75;5080778;28;19951;-63
2022/12/31 03:57:11;;;;;;;;;;;;;;;11.01;100.00;100249.31;5081374;28;20284;-61
2022/12/31 03:59:37;;;;;;;;;;;;;;;11.02;100.00;100258.91;5068757;28;19916;-63
2022/12/31 04:02:02;;;;;;;;;;;;;;;11.05;100.00;100263.03;5082732;28;20273;-60
2022/12/31 04:04:27;;;;;;;;;;;;;;;11.04;100.00;100270.19;5074399;28;20010;-62
2022/12/31 04:06:52;;;;;;;;;;;;;;;11.05;100.00;100281.63;5086721;28;20368;-62
2022/12/31 04:09:17;;;;;;;;;;;;;;;11.03;100.00;100281.81;5080740;28;19920;-61
2022/12/31 04:11:43;;;;;;;;;;;;;;;11.04;100.00;100294.09;5081125;28;19922;-61
2022/12/31 04:14:08;;;;;;;;;;;;;;;11.05;100.00;100292.25;5084593;28;20372;-60
2022/12/31 04:16:33;;;;;;;;;;;;;;;11.06;100.00;100289.41;5081197;28;20302;-63
2022/12/31 04:18:58;;;;;;;;;;;;;;;11.07;100.00;100277.78;5076609;28;20039;-62
2022/12/31 04:21:24;;;;;;;;;;;;;;;11.09;100.00;100269.63;5082786;28;20375;-62
2022/12/31 04:23:49;;;;;;;;;;;;;;;11.10;100.00;100261.44;5076262;28;19920;-62
2022/12/31 04:26:14;;;;;;;;;;;;;;;11.12;100.00;100254.13;5083956;28;19924;-61
2022/12/31 04:28:39;;;;;;;;;;;;;;;11.14;100.00;100257.41;5085387;28;20390;-62
2022/12/31 04:31:04;;;;;;;;;;;;;;;11.15;100.00;100256.38;5075427;28;19920;-62
2022/12/31 04:33:30;;;;;;;;;;;;;;;11.18;100.00;100257.84;5071972;28;19916;-63
2022/12/31 04:36:05;;;;;;;;;;;;;;;11.18;100.00;100247.22;5081990;28;19916;-62
2022/12/31 04:38:30;;;;;;;;;;;;;;;11.20;100.00;100236.41;5078822;28;20311;-63
2022/12/31 04:43:39;;;;;;;;;;;;;;;11.24;100.00;100245.63;5077339;28;19969;-62
2022/12/31 04:46:05;;;;;;;;;;;;;;;11.24;100.00;100253.59;5077997;28;19924;-62
2022/12/31 04:48:31;;;;;;;;;;;;;;;11.23;100.00;100250.13;5080447;28;20014;-61
2022/12/31 04:50:56;;;;;;;;;;;;;;;11.23;100.00;100236.84;5080066;28;20019;-64
2022/12/31 04:53:23;;;;;;;;;;;;;;;11.25;100.00;100271.19;5078948;28;19951;-61
2022/12/31 04:55:48;;;;;;;;;;;;;;;11.22;100.00;100261.78;5088484;28;19985;-63
2022/12/31 04:58:13;;;;;;;;;;;;;;;11.24;100.00;100273.03;5083681;28;19920;-62
2022/12/31 05:00:38;;;;;;;;;;;;;;;11.21;100.00;100276.06;5078738;28;19912;-62
2022/12/31 05:03:04;;;;;;;;;;;;;;;11.19;100.00;100275.44;5088209;28;19931;-61
2022/12/31 05:05:29;;;;;;;;;;;;;;;11.18;100.00;100276.44;5091842;28;19920;-62
2022/12/31 05:07:54;;;;;;;;;;;;;;;11.15;100.00;100274.16;5085865;28;20010;-63
2022/12/31 05:10:19;;;;;;;;;;;;;;;11.12;100.00;100275.38;5081260;28;20341;-63
2022/12/31 05:12:44;;;;;;;;;;;;;;;11.09;100.00;100291.69;5085891;28;19916;-62
2022/12/31 05:15:10;;;;;;;;;;;;;;;11.07;100.00;100293.72;5081624;28;19912;-61
2022/12/31 05:17:35;;;;;;;;;;;;;;;11.06;100.00;100309.84;5082587;28;19917;-64
2022/12/31 05:20:00;;;;;;;;;;;;;;;11.06;100.00;100301.88;5084972;28;20391;-62
2022/12/31 05:22:28;;;;;;;;;;;;;;;11.04;100.00;100309.22;5091235;28;20375;-63
2022/12/31 05:24:54;;;;;;;;;;;;;;;11.02;100.00;100301.44;5077092;28;19923;-62
2022/12/31 05:27:19;;;;;;;;;;;;;;;11.00;100.00;100290.16;5081549;28;19920;-61
2022/12/31 05:29:44;;;;;;;;;;;;;;;11.01;100.00;100296.31;5081818;28;19927;-61
2022/12/31 05:32:09;;;;;;;;;;;;;;;11.00;100.00;100302.63;5082296;28;19981;-62
2022/12/31 05:34:34;;;;;;;;;;;;;;;11.00;100.00;100290.16;5079432;28;20290;-61
2022/12/31 05:37:00;;;;;;;;;;;;;;;11.03;100.00;100288.97;5083602;28;19916;-61
2022/12/31 05:39:25;;;;;;;;;;;;;;;11.04;100.00;100294.09;5077212;28;20289;-62
2022/12/31 05:41:50;;;;;;;;;;;;;;;11.06;100.00;100291.25;5083334;28;19927;-63
2022/12/31 05:44:15;;;;;;;;;;;;;;;11.08;100.00;100289.22;5086524;28;19915;-62
2022/12/31 05:46:40;;;;;;;;;;;;;;;11.08;100.00;100300.69;5080632;28;19966;-61
2022/12/31 05:49:05;;;;;;;;;;;;;;;11.09;100.00;100304.97;5080442;28;20335;-62
2022/12/31 05:51:31;;;;;;;;;;;;;;;11.10;100.00;100303.97;5082794;28;19923;-61
2022/12/31 05:53:56;;;;;;;;;;;;;;;11.14;100.00;100325.69;5086908;28;20466;-65
2022/12/31 05:56:21;;;;;;;;;;;;;;;11.22;100.00;100351.31;5075067;28;19916;-61
2022/12/31 05:58:46;;;;;;;;;;;;;;;11.25;100.00;100333.16;5086256;28;20514;-63
2022/12/31 06:01:11;;;;;;;;;;;;;;;11.29;100.00;100326.47;5081400;28;19920;-62
2022/12/31 06:03:36;;;;;;;;;;;;;;;11.37;100.00;100312.22;5085056;28;20362;-61
2022/12/31 06:06:02;;;;;;;;;;;;;;;11.53;100.00;100305.84;5088340;28;19920;-62
2022/12/31 06:08:27;;;;;;;;;;;;;;;11.67;100.00;100316.44;5086112;28;20319;-62
2022/12/31 06:10:52;;;;;;;;;;;;;;;11.79;100.00;100311.44;5086049;28;19999;-62
2022/12/31 06:13:17;;;;;;;;;;;;;;;11.93;100.00;100321.19;5084356;28;19916;-62
2022/12/31 06:15:42;;;;;;;;;;;;;;;12.07;100.00;100295.50;5077608;28;19999;-62
2022/12/31 06:18:07;;;;;;;;;;;;;;;12.23;100.00;100295.22;5088090;28;19916;-61
2022/12/31 06:20:35;;;;;;;;;;;;;;;12.39;100.00;100318.03;5096406;28;20490;-63
2022/12/31 06:23:00;;;;;;;;;;;;;;;12.56;100.00;100326.56;5084355;28;19916;-62
2022/12/31 06:25:25;;;;;;;;;;;;;;;12.67;100.00;100312.66;5085680;28;19973;-62
2022/12/31 06:27:50;;;;;;;;;;;;;;;12.81;100.00;100308.25;5084741;28;19927;-62
2022/12/31 06:30:16;;;;;;;;;;;;;;;12.91;100.00;100312.19;5080113;28;20292;-62
2022/12/31 06:32:41;;;;;;;;;;;;;;;12.98;100.00;100320.19;5081237;28;19916;-64
2022/12/31 06:35:06;;;;;;;;;;;;;;;13.09;100.00;100326.81;5079248;28;19925;-62
2022/12/31 06:37:31;;;;;;;;;;;;;;;13.16;100.00;100303.66;5080532;28;19928;-63
2022/12/31 06:39:57;;;;;;;;;;;;;;;13.29;100.00;100293.88;5078711;28;19938;-62
2022/12/31 06:42:22;;;;;;;;;;;;;;;13.47;100.00;100292.47;5081392;28;19923;-62
2022/12/31 06:44:47;;;;;;;;;;;;;;;13.61;100.00;100315.50;5076625;28;20340;-63
2022/12/31 06:47:12;;;;;;;;;;;;;;;13.71;100.00;100315.91;5081788;28;19920;-64
2022/12/31 06:49:39;;;;;;;;;;;;;;;13.90;100.00;100296.44;5076402;28;19917;-64
2022/12/31 06:52:04;;;;;;;;;;;;;;;14.13;100.00;100298.66;5083800;28;19916;-62
2022/12/31 06:54:30;;;;;;;;;;;;;;;14.31;100.00;100314.06;5087215;28;19940;-63
2022/12/31 06:56:55;;;;;;;;;;;;;;;14.47;100.00;100302.16;5081600;28;19917;-63
2022/12/31 06:59:28;;;;;;;;;;;;;;;14.56;100.00;100293.69;5072705;28;19917;-62
2022/12/31 07:01:59;;;;;;;;;;;;;;;14.58;100.00;100306.84;5079589;28;20057;-62
2022/12/31 07:04:42;;;;;;;;;;;;;;;14.68;100.00;100293.03;5088790;28;19938;-63
2022/12/31 07:07:26;;;;;;;;;;;;;;;14.80;100.00;100297.53;5079183;28;20389;-61
2022/12/31 07:09:51;;;;;;;;;;;;;;;14.81;99.60;100312.53;5083715;28;19916;-62
2022/12/31 07:12:22;;;;;;;;;;;;;;;14.60;99.88;100325.34;5083983;28;19974;-62
2022/12/31 07:14:47;;;;;;;;;;;;;;;14.30;100.00;100315.09;5079098;28;20414;-61
2022/12/31 07:17:33;;;;;;;;;;;;;;;14.06;100.00;100350.44;5078741;28;19916;-62
2022/12/31 07:20:01;;;;;;;;;;;;;;;13.80;100.00;100354.72;5054638;28;19942;-64
2022/12/31 07:22:26;;;;;;;;;;;;;;;13.53;100.00;100319.16;5094254;28;19916;-65
2022/12/31 07:24:52;;;;;;;;;;;;;;;13.42;100.00;100311.75;5083046;28;19923;-64
2022/12/31 07:27:29;;;;;;;;;;;;;;;13.33;100.00;100323.66;5084547;28;19920;-64
2022/12/31 07:29:57;;;;;;;;;;;;;;;13.27;100.00;100319.91;5085069;28;19919;-64
2022/12/31 07:32:28;;;;;;;;;;;;;;;13.31;100.00;100325.69;5081493;28;20387;-65
2022/12/31 07:34:59;;;;;;;;;;;;;;;13.32;100.00;100333.50;5077259;28;19928;-64
2022/12/31 07:37:51;;;;;;;;;;;;;;;13.33;100.00;100312.97;5081949;28;19920;-65
2022/12/31 07:40:19;;;;;;;;;;;;;;;13.33;100.00;100308.47;5069992;28;19925;-64
2022/12/31 07:43:03;;;;;;;;;;;;;;;13.39;100.00;100312.16;5075875;28;20291;-64
2022/12/31 07:45:36;;;;;;;;;;;;;;;13.39;100.00;100298.84;5079910;28;19920;-63
2022/12/31 07:48:01;;;;;;;;;;;;;;;13.54;100.00;100303.97;5077203;28;19962;-63
2022/12/31 07:50:27;;;;;;;;;;;;;;;13.94;100.00;100286.16;5078375;28;19912;-65
2022/12/31 07:52:52;;;;;;;;;;;;;;;14.17;100.00;100289.22;5084247;28;19920;-62
2022/12/31 07:55:17;;;;;;;;;;;;;;;14.24;100.00;100290.03;5089673;28;20275;-64
2022/12/31 07:57:54;;;;;;;;;;;;;;;14.20;100.00;100294.16;5080767;28;19973;-62
2022/12/31 08:00:19;;;;;;;;;;;;;;;14.24;100.00;100307.91;5076907;28;20570;-62
2022/12/31 08:03:03;;;;;;;;;;;;;;;14.21;100.00;100292.31;5093560;28;19915;-63
2022/12/31 08:05:51;;;;;;;;;;;;;;;14.16;100.00;100302.75;5088431;28;20362;-63
2022/12/31 08:08:35;;;;;;;;;;;;;;;14.15;100.00;100307.28;5079726;28;19912;-63
2022/12/31 08:11:10;;;;;;;;;;;;;;;14.02;100.00;100298.47;5084740;28;19912;-63
2022/12/31 08:13:36;;;;;;;;;;;;;;;13.93;100.00;100330.72;5090170;28;19923;-65
2022/12/31 08:16:02;;;;;;;;;;;;;;;13.94;100.00;100320.88;5085785;28;19916;-62
2022/12/31 08:18:27;;;;;;;;;;;;;;;14.02;100.00;100325.16;5076282;28;19916;-62
2022/12/31 08:21:27;;;;;;;;;;;;;;;14.12;100.00;100338.91;5088545;28;19920;-63
2022/12/31 08:23:58;;;;;;;;;;;;;;;14.17;100.00;100369.34;5014818;28;20377;-63
2022/12/31 08:26:33;;;;;;;;;;;;;;;14.39;100.00;100401.16;5074378;28;19945;-62
2022/12/31 08:29:04;;;;;;;;;;;;;;;14.55;100.00;100404.28;5078152;28;20338;-63
2022/12/31 08:31:35;;;;;;;;;;;;;;;14.63;100.00;100421.13;5078145;28;19917;-62
2022/12/31 08:34:12;;;;;;;;;;;;;;;14.68;99.86;100424.00;5081933;28;19969;-63
2022/12/31 08:36:55;;;;;;;;;;;;;;;14.73;98.66;100432.22;5082333;28;19916;-62
2022/12/31 08:39:38;;;;;;;;;;;;;;;14.80;98.09;100441.88;5072222;28;19912;-63
2022/12/31 08:42:13;;;;;;;;;;;;;;;14.91;96.94;100450.28;5084540;28;19989;-62
2022/12/31 08:44:46;;;;;;;;;;;;;;;14.93;96.20;100470.44;5078548;28;19916;-62
2022/12/31 08:47:28;;;;;;;;;;;;;;;14.96;95.73;100443.28;5083960;28;20007;-62
2022/12/31 08:49:54;;;;;;;;;;;;;;;14.96;95.47;100453.16;5091037;28;19965;-61
2022/12/31 08:52:22;;;;;;;;;;;;;;;14.97;94.61;100470.84;5078797;28;20023;-61
2022/12/31 08:54:47;;;;;;;;;;;;;;;14.66;96.75;100498.22;5085318;28;19966;-62
2022/12/31 08:57:15;;;;;;;;;;;;;;;14.10;99.49;100480.66;5085828;28;19912;-63
2022/12/31 08:59:52;;;;;;;;;;;;;;;13.83;100.00;100492.28;5085239;28;19917;-62
2022/12/31 09:02:24;;;;;;;;;;;;;;;13.80;100.00;100506.84;5085037;28;20003;-63
2022/12/31 09:04:53;;;;;;;;;;;;;;;13.95;100.00;100509.38;5083928;28;19962;-62
2022/12/31 09:07:21;;;;;;;;;;;;;;;14.07;100.00;100501.59;5084509;28;19920;-62
2022/12/31 09:10:06;;;;;;;;;;;;;;;14.20;100.00;100488.28;5079141;28;19927;-65
2022/12/31 09:12:45;;;;;;;;;;;;;;;14.31;100.00;100510.91;5079498;28;19912;-64
2022/12/31 09:15:21;;;;;;;;;;;;;;;14.42;100.00;100529.00;5084376;28;19926;-64
2022/12/31 09:17:48;;;;;;;;;;;;;;;14.46;100.00;100525.78;5083850;28;19926;-62
2022/12/31 09:20:19;;;;;;;;;;;;;;;14.53;98.78;100518.56;5084907;28;19923;-63
2022/12/31 09:22:44;;;;;;;;;;;;;;;14.64;98.48;100535.03;5079966;28;19917;-63
2022/12/31 09:25:14;;;;;;;;;;;;;;;14.68;97.55;100538.94;5081636;28;19963;-63
2022/12/31 09:27:45;;;;;;;;;;;;;;;14.75;96.90;100527.22;5088418;28;19970;-62
2022/12/31 09:30:11;;;;;;;;;;;;;;;14.81;96.39;100568.34;5079294;28;19930;-63
2022/12/31 09:32:46;;;;;;;;;;;;;;;14.72;95.98;100554.34;5078555;28;19927;-63
2022/12/31 09:35:12;;;;;;;;;;;;;;;14.52;97.66;100556.19;5083202;28;20334;-62
2022/12/31 09:37:43;;;;;;;;;;;;;;;14.11;100.00;100558.91;5081803;28;20015;-65
2022/12/31 09:40:21;;;;;;;;;;;;;;;13.78;100.00;100567.63;5078441;28;19994;-62
2022/12/31 09:43:05;;;;;;;;;;;;;;;13.60;100.00;100554.81;5082128;28;19931;-63
2022/12/31 09:45:30;;;;;;;;;;;;;;;13.53;100.00;100564.59;5088791;28;19927;-63
2022/12/31 09:48:14;;;;;;;;;;;;;;;13.50;100.00;100572.19;5076468;28;19923;-62
2022/12/31 09:50:51;;;;;;;;;;;;;;;13.49;100.00;100568.69;5073794;28;19962;-62
2022/12/31 09:53:28;;;;;;;;;;;;;;;13.47;100.00;100553.91;5078165;28;19916;-63
2022/12/31 09:56:01;;;;;;;;;;;;;;;13.59;100.00;100558.50;5082217;28;20392;-63
2022/12/31 09:58:35;;;;;;;;;;;;;;;13.70;100.00;100549.09;5085387;28;20387;-63
2022/12/31 10:01:09;;;;;;;;;;;;;;;13.81;100.00;100561.88;5096440;28;19978;-63
2022/12/31 10:03:53;;;;;;;;;;;;;;;13.93;100.00;100567.50;5076585;28;19924;-62
2022/12/31 10:06:23;;;;;;;;;;;;;;;13.96;100.00;100569.75;5081836;28;19920;-62
2022/12/31 10:08:51;;;;;;;;;;;;;;;13.77;100.00;100568.63;5082913;28;19959;-63
2022/12/31 10:11:35;;;;;;;;;;;;;;;13.77;100.00;100570.47;5076307;28;19931;-62
2022/12/31 10:14:03;;;;;;;;;;;;;;;13.79;100.00;100571.94;5073803;28;19923;-63
2022/12/31 10:16:28;;;;;;;;;;;;;;;13.85;100.00;100571.13;5079916;28;19920;-63
2022/12/31 10:19:05;;;;;;;;;;;;;;;13.91;100.00;100570.38;5073352;28;19975;-63
2022/12/31 10:21:31;;;;;;;;;;;;;;;13.95;100.00;100584.13;5073988;28;19920;-63
2022/12/31 10:23:59;;;;;;;;;;;;;;;14.00;100.00;100583.53;5084809;28;19919;-62
2022/12/31 10:26:24;;;;;;;;;;;;;;;13.97;100.00;100563.41;5090378;28;19916;-62
2022/12/31 10:29:07;;;;;;;;;;;;;;;14.02;100.00;100579.63;5102192;28;19916;-63
2022/12/31 10:31:44;;;;;;;;;;;;;;;14.03;100.00;100545.75;5085666;28;20379;-62
2022/12/31 10:34:12;;;;;;;;;;;;;;;14.03;100.00;100553.75;5074653;28;19916;-63
2022/12/31 10:36:56;;;;;;;;;;;;;;;14.12;100.00;100547.22;5084066;28;19916;-63
2022/12/31 10:39:28;;;;;;;;;;;;;;;14.24;100.00;100540.28;5080323;28;19912;-65
2022/12/31 10:42:05;;;;;;;;;;;;;;;14.37;100.00;100555.50;5082376;28;20379;-64
2022/12/31 10:44:42;;;;;;;;;;;;;;;14.50;100.00;100540.38;5081312;28;19920;-63
2022/12/31 10:47:13;;;;;;;;;;;;;;;14.66;100.00;100546.31;5081806;28;20016;-62
2022/12/31 10:49:57;;;;;;;;;;;;;;;14.74;100.00;100543.44;5075394;28;20006;-63
2022/12/31 10:52:34;;;;;;;;;;;;;;;14.81;99.33;100546.97;5088466;28;19912;-62
2022/12/31 10:55:08;;;;;;;;;;;;;;;14.84;98.58;100542.03;5093102;28;20015;-62
2022/12/31 10:58:00;;;;;;;;;;;;;;;14.88;97.95;100547.78;5076148;28;19920;-62
2022/12/31 11:00:34;;;;;;;;;;;;;;;14.96;96.61;100544.06;5079393;28;20412;-64
2022/12/31 11:03:18;;;;;;;;;;;;;;;15.04;96.02;100567.94;5088883;28;19957;-61
2022/12/31 11:06:06;;;;;;;;;;;;;;;15.08;94.88;100553.97;5079169;28;19963;-61
2022/12/31 11:08:31;;;;;;;;;;;;;;;15.15;94.31;100559.28;5048440;28;19927;-62
2022/12/31 11:11:15;;;;;;;;;;;;;;;15.16;93.90;100552.91;5090092;28;20307;-62
2022/12/31 11:13:49;;;;;;;;;;;;;;;15.23;92.95;100556.41;5072919;28;19912;-64
2022/12/31 11:16:28;;;;;;;;;;;;;;;15.31;91.75;100556.16;5085026;28;19955;-63
2022/12/31 11:18:54;;;;;;;;;;;;;;;15.38;90.89;100558.84;5079849;28;19916;-62
2022/12/31 11:21:31;;;;;;;;;;;;;;;15.44;90.41;100561.50;5080228;28;20026;-61
2022/12/31 11:24:11;;;;;;;;;;;;;;;15.43;90.03;100559.06;5079837;28;19924;-64
2022/12/31 11:26:37;;;;;;;;;;;;;;;15.41;90.30;100553.91;5081781;28;19928;-64
2022/12/31 11:29:07;;;;;;;;;;;;;;;15.40;89.86;100570.16;5088356;28;19916;-63
2022/12/31 11:31:51;;;;;;;;;;;;;;;15.42;89.60;100574.28;5081639;28;20578;-63
2022/12/31 11:34:24;;;;;;;;;;;;;;;15.44;89.16;100568.72;5080974;28;20473;-61
2022/12/31 11:36:52;;;;;;;;;;;;;;;15.54;88.31;100601.22;5081247;28;19924;-62
2022/12/31 11:39:19;;;;;;;;;;;;;;;15.57;87.68;100579.38;5085077;28;19956;-63
2022/12/31 11:41:49;;;;;;;;;;;;;;;15.57;87.32;100575.88;5072847;28;20288;-62
2022/12/31 11:44:14;;;;;;;;;;;;;;;15.51;87.71;100585.56;5081824;28;19943;-64
2022/12/31 11:47:00;;;;;;;;;;;;;;;15.44;87.99;100582.91;5073291;28;20061;-64
2022/12/31 11:49:44;;;;;;;;;;;;;;;15.42;88.31;100593.00;5084687;28;19920;-63
2022/12/31 11:52:15;;;;;;;;;;;;;;;15.39;88.40;100603.31;5071854;28;19913;-61
2022/12/31 11:54:48;;;;;;;;;;;;;;;15.26;88.88;100595.28;5084117;28;20331;-65
2022/12/31 11:57:21;;;;;;;;;;;;;;;14.77;90.61;100597.34;5078139;28;19913;-63
2022/12/31 11:59:46;;;;;;;;;;;;;;;14.45;92.73;100584.72;5082206;28;19916;-62
2022/12/31 12:02:26;;;;;;;;;;;;;;;14.46;93.12;100603.25;5080953;28;19923;-62
2022/12/31 12:04:52;;;;;;;;;;;;;;;14.71;92.83;100590.13;5084721;28;19920;-61
2022/12/31 12:07:17;;;;;;;;;;;;;;;14.81;92.10;100597.75;5074156;28;19935;-62
2022/12/31 12:09:43;;;;;;;;;;;;;;;14.82;92.21;100596.72;5079945;28;19977;-62
2022/12/31 12:12:09;;;;;;;;;;;;;;;14.67;92.80;100586.22;5074457;28;19916;-63
2022/12/31 12:14:35;;;;;;;;;;;;;;;14.44;93.76;100596.44;5083147;28;19923;-63
2022/12/31 12:17:01;;;;;;;;;;;;;;;14.23;95.77;100594.72;5079376;28;19923;-62
2022/12/31 12:19:29;;;;;;;;;;;;;;;14.01;97.74;100598.53;5080489;28;19920;-61
2022/12/31 12:21:54;;;;;;;;;;;;;;;13.81;99.39;100582.41;5074137;28;19923;-63
2022/12/31 12:24:21;;;;;;;;;;;;;;;13.67;100.00;100586.88;5077042;28;20317;-62
2022/12/31 12:26:47;;;;;;;;;;;;;;;13.63;100.00;100612.28;5077287;28;19920;-61
2022/12/31 12:29:17;;;;;;;;;;;;;;;13.57;100.00;100600.53;5079671;28;19922;-62
2022/12/31 12:31:53;;;;;;;;;;;;;;;13.53;100.00;100585.13;5075235;28;19931;-61
2022/12/31 12:34:26;;;;;;;;;;;;;;;13.52;100.00;100589.63;5085627;28;20399;-62
2022/12/31 12:36:51;;;;;;;;;;;;;;;13.49;100.00;100599.88;5072386;28;19994;-63
2022/12/31 12:39:24;;;;;;;;;;;;;;;13.49;100.00;100589.22;5084103;28;19924;-63
2022/12/31 12:42:02;;;;;;;;;;;;;;;13.49;100.00;100579.34;5072211;28;19916;-62
2022/12/31 12:44:27;;;;;;;;;;;;;;;13.46;100.00;100584.25;5077637;28;20379;-61
2022/12/31 12:46:53;;;;;;;;;;;;;;;13.48;100.00;100598.22;5083824;28;19934;-62
2022/12/31 12:49:25;;;;;;;;;;;;;;;13.50;100.00;100577.50;5085507;28;19963;-62